Time;durP1;ratioP1;P1;durP2;ratioP2;P2;SDS_P1;SDS_P2;PMS_P1;PMS_P2;Temp;Humidity;BMP_temperature;BMP_pressure;BME280_temperature;BME280_humidity;BME280_pressure;Samples;Min_cycle;Max_cycle;Signal;HPM_P1;HPM_P2
2022/06/17 00:00:32;;;;;;;12.83;6.40;;;;;;;12.10;100.00;101083.97;7390190;19;20412;-52
2022/06/17 00:03:02;;;;;;;8.47;5.20;;;;;;;12.05;100.00;101089.78;7397922;19;20482;-54
2022/06/17 00:05:34;;;;;;;12.20;6.70;;;;;;;12.09;100.00;101083.91;7390314;19;20504;-52
2022/06/17 00:08:04;;;;;;;8.93;5.80;;;;;;;11.94;100.00;101082.44;7396145;19;20387;-54
2022/06/17 00:10:33;;;;;;;11.17;5.70;;;;;;;11.70;100.00;101082.31;7388521;19;20421;-53
2022/06/17 00:13:03;;;;;;;9.77;5.63;;;;;;;11.58;100.00;101061.97;7395948;19;20756;-53
2022/06/17 00:15:32;;;;;;;10.07;6.50;;;;;;;11.65;100.00;101047.63;7389139;19;20428;-56
2022/06/17 00:18:02;;;;;;;11.60;7.30;;;;;;;11.69;100.00;101019.38;7401385;19;20396;-53
2022/06/17 00:20:35;;;;;;;11.27;7.13;;;;;;;11.91;100.00;101052.97;7385625;19;20414;-54
2022/06/17 00:23:04;;;;;;;10.50;6.93;;;;;;;11.87;100.00;101064.91;7396832;19;20961;-51
2022/06/17 00:25:36;;;;;;;16.90;6.70;;;;;;;11.82;100.00;101072.47;7388733;19;20449;-55
2022/06/17 00:28:06;;;;;;;13.53;7.27;;;;;;;11.95;100.00;101073.84;7396922;19;20388;-55
2022/06/17 00:30:36;;;;;;;9.83;7.10;;;;;;;11.87;100.00;101059.75;7392753;19;20458;-52
2022/06/17 00:33:06;;;;;;;15.43;6.93;;;;;;;11.60;100.00;101056.06;7395084;19;20465;-49
2022/06/17 00:35:40;;;;;;;12.50;7.50;;;;;;;11.52;100.00;101047.09;7390113;19;20768;-51
2022/06/17 00:38:14;;;;;;;14.60;7.90;;;;;;;11.52;100.00;101057.44;7396393;19;20379;-55
2022/06/17 00:40:45;;;;;;;11.47;7.53;;;;;;;11.33;100.00;101066.97;7388548;19;20418;-49
2022/06/17 00:43:27;;;;;;;14.80;8.10;;;;;;;11.25;100.00;101063.19;7395987;19;20388;-54
2022/06/17 00:46:05;;;;;;;11.93;8.00;;;;;;;11.35;100.00;101074.81;7387635;19;20411;-53
2022/06/17 00:48:39;;;;;;;12.83;7.80;;;;;;;11.45;100.00;101079.53;7395880;19;20916;-53
2022/06/17 00:51:17;;;;;;;16.63;10.17;;;;;;;11.29;100.00;101079.69;7389935;19;20807;-52
2022/06/17 00:53:52;;;;;;;14.60;8.67;;;;;;;11.19;100.00;101084.44;7394646;19;20387;-52
2022/06/17 00:56:25;;;;;;;12.90;8.17;;;;;;;11.33;100.00;101091.91;7388090;19;20413;-54
2022/06/17 00:59:02;;;;;;;11.23;8.30;;;;;;;11.23;100.00;101094.94;7396756;19;20399;-50
2022/06/17 01:01:35;;;;;;;17.17;8.80;;;;;;;11.10;100.00;101086.63;7387818;19;20423;-53
2022/06/17 01:04:05;;;;;;;12.70;8.27;;;;;;;11.21;100.00;101088.00;7395808;19;20387;-52
2022/06/17 01:06:40;;;;;;;13.40;8.80;;;;;;;11.03;100.00;101087.16;7387635;19;20489;-52
2022/06/17 01:12:12;;;;;;;14.93;8.53;;;;;;;10.94;100.00;101114.31;7391288;19;20433;-55
2022/06/17 01:14:44;;;;;;;12.23;8.70;;;;;;;10.97;100.00;101123.03;7386802;19;20428;-51
2022/06/17 01:17:16;;;;;;;13.33;9.23;;;;;;;10.90;100.00;101133.09;7395572;19;20386;-50
2022/06/17 01:19:50;;;;;;;13.70;9.60;;;;;;;10.84;100.00;101127.63;7386747;19;20415;-53
2022/06/17 01:22:37;;;;;;;17.30;8.30;;;;;;;10.76;100.00;101128.94;7394326;19;20465;-53
2022/06/17 01:25:11;;;;;;;16.30;9.30;;;;;;;10.80;100.00;101141.19;7387085;19;20767;-53
2022/06/17 01:27:43;;;;;;;11.13;8.23;;;;;;;10.82;100.00;101129.25;7395279;19;20394;-49
2022/06/17 01:30:16;;;;;;;13.03;8.33;;;;;;;10.71;100.00;101125.28;7386515;19;20412;-52
2022/06/17 01:32:50;;;;;;;15.17;8.90;;;;;;;10.59;100.00;101134.22;7393309;19;20728;-51
2022/06/17 01:35:21;;;;;;;16.10;9.33;;;;;;;10.60;100.00;101143.72;7387612;19;20463;-51
2022/06/17 01:37:56;;;;;;;12.40;9.00;;;;;;;10.61;100.00;101186.78;7393489;19;20391;-53
2022/06/17 01:40:28;;;;;;;13.80;8.87;;;;;;;10.60;100.00;101203.06;7384034;19;20422;-53
2022/06/17 01:43:00;;;;;;;15.00;8.70;;;;;;;10.59;100.00;101209.03;7393277;19;20415;-48
2022/06/17 01:45:30;;;;;;;16.37;9.43;;;;;;;10.58;100.00;101212.44;7387405;19;20416;-51
2022/06/17 01:48:08;;;;;;;12.83;9.10;;;;;;;10.51;100.00;101221.56;7396253;19;20405;-52
2022/06/17 01:50:39;;;;;;;21.87;10.10;;;;;;;10.37;100.00;101233.72;7385341;19;20403;-50
2022/06/17 01:53:13;;;;;;;16.53;9.10;;;;;;;10.37;100.00;101233.72;7392025;19;20468;-49
2022/06/17 01:55:45;;;;;;;15.00;8.97;;;;;;;10.49;100.00;101249.00;7385006;19;20436;-48
2022/06/17 01:58:20;;;;;;;14.20;7.87;;;;;;;10.48;100.00;101261.81;7393318;19;20395;-54
2022/06/17 02:00:50;;;;;;;13.50;8.03;;;;;;;10.42;100.00;101256.31;7385599;19;20419;-50
2022/06/17 02:03:24;;;;;;;15.53;10.03;;;;;;;10.46;100.00;101268.59;7397081;19;20414;-53
2022/06/17 02:06:07;;;;;;;14.63;8.97;;;;;;;10.48;100.00;101279.88;7385848;19;20411;-48
2022/06/17 02:08:39;;;;;;;13.43;9.20;;;;;;;10.43;100.00;101278.75;7393235;19;20385;-55
2022/06/17 02:11:09;;;;;;;16.23;8.77;;;;;;;10.45;100.00;101287.47;7384669;19;20407;-48
2022/06/17 02:13:40;;;;;;;15.93;9.67;;;;;;;10.43;100.00;101289.06;7392288;19;20389;-50
2022/06/17 02:16:11;;;;;;;14.57;9.47;;;;;;;10.34;100.00;101289.44;7385179;19;20420;-51
2022/06/17 02:18:41;;;;;;;19.30;8.37;;;;;;;10.31;100.00;101294.44;7392999;19;20390;-52
2022/06/17 02:21:16;;;;;;;15.37;8.80;;;;;;;10.26;100.00;101304.53;7385269;19;20409;-51
2022/06/17 02:23:48;;;;;;;13.20;8.23;;;;;;;10.33;100.00;101311.78;7392760;19;20409;-53
2022/06/17 02:26:18;;;;;;;13.93;7.63;;;;;;;10.37;100.00;101316.28;7388741;19;20782;-54
2022/06/17 02:28:49;;;;;;;16.87;9.67;;;;;;;10.39;100.00;101316.34;7392433;19;20384;-54
2022/06/17 02:31:19;;;;;;;16.53;9.30;;;;;;;10.46;100.00;101321.06;7386034;19;20432;-48
2022/06/17 02:33:51;;;;;;;16.27;9.10;;;;;;;10.60;100.00;101326.03;7391547;19;20810;-52
2022/06/17 02:36:27;;;;;;;12.07;8.87;;;;;;;10.42;100.00;101324.28;7385633;19;20420;-53
2022/06/17 02:38:59;;;;;;;15.67;8.37;;;;;;;10.43;100.00;101326.06;7391804;19;20372;-53
2022/06/17 02:41:30;;;;;;;14.70;8.40;;;;;;;10.45;100.00;101327.03;7384795;19;20448;-54
2022/06/17 02:44:03;;;;;;;17.53;9.07;;;;;;;10.37;100.00;101326.59;7395647;19;20400;-51
2022/06/17 02:46:35;;;;;;;12.70;8.57;;;;;;;10.55;100.00;101325.81;7392193;19;20416;-55
2022/06/17 02:49:09;;;;;;;17.20;9.00;;;;;;;10.53;100.00;101322.25;7399116;19;20400;-53
2022/06/17 02:51:41;;;;;;;12.63;8.23;;;;;;;10.49;100.00;101322.91;7399193;19;20416;-53
2022/06/17 02:54:14;;;;;;;16.00;9.10;;;;;;;10.46;100.00;101322.75;7398092;19;20377;-54
2022/06/17 02:56:46;;;;;;;13.60;8.30;;;;;;;10.44;100.00;101316.63;7399151;19;20800;-50
2022/06/17 02:59:21;;;;;;;12.40;8.77;;;;;;;10.39;100.00;101316.34;7393100;19;20730;-51
2022/06/17 03:01:53;;;;;;;17.07;8.40;;;;;;;10.33;100.00;101314.34;7398734;19;20407;-48
2022/06/17 03:04:27;;;;;;;14.00;8.57;;;;;;;10.42;100.00;101320.78;7391620;19;20396;-52
2022/06/17 03:06:57;;;;;;;16.77;7.83;;;;;;;10.51;100.00;101323.91;7400601;19;20472;-52
2022/06/17 03:09:31;;;;;;;13.17;8.80;;;;;;;10.18;100.00;101327.34;7389443;19;20380;-53
2022/06/17 03:12:04;;;;;;;20.23;10.07;;;;;;;9.88;100.00;101339.50;7399126;19;20375;-51
2022/06/17 03:14:38;;;;;;;15.07;9.43;;;;;;;9.80;100.00;101347.66;7388421;19;20957;-51
2022/06/17 03:17:10;;;;;;;15.13;9.03;;;;;;;9.90;100.00;101345.63;7398978;19;20929;-52
2022/06/17 03:19:40;;;;;;;17.97;10.40;;;;;;;9.91;100.00;101355.13;7387944;19;20510;-51
2022/06/17 03:22:12;;;;;;;13.90;9.50;;;;;;;9.91;100.00;101368.91;7399092;19;20391;-51
2022/06/17 03:24:49;;;;;;;15.33;9.80;;;;;;;10.02;100.00;101374.63;7391363;19;20783;-49
2022/06/17 03:27:22;;;;;;;14.83;10.27;;;;;;;10.05;100.00;101361.03;7398616;19;20742;-54
2022/06/17 03:29:52;;;;;;;17.50;11.00;;;;;;;10.06;100.00;101366.22;7390508;19;21261;-50
2022/06/17 03:32:24;;;;;;;49.93;23.57;;;;;;;10.19;100.00;101378.09;7398899;19;20924;-49
2022/06/17 03:34:56;;;;;;;15.33;10.47;;;;;;;10.36;100.00;101391.88;7389207;19;20419;-51
2022/06/17 03:37:30;;;;;;;15.90;9.30;;;;;;;10.53;100.00;101399.66;7398643;19;20389;-53
2022/06/17 03:40:07;;;;;;;13.17;8.93;;;;;;;10.54;100.00;101393.69;7388254;19;20496;-51
2022/06/17 03:42:39;;;;;;;25.90;12.10;;;;;;;10.25;100.00;101399.06;7398357;19;20962;-54
2022/06/17 03:45:24;;;;;;;25.17;13.33;;;;;;;10.10;100.00;101396.53;7390022;19;21005;-53
2022/06/17 03:47:59;;;;;;;19.20;11.50;;;;;;;10.17;100.00;101404.63;7399957;19;20477;-50
2022/06/17 03:50:32;;;;;;;17.83;9.23;;;;;;;10.31;100.00;101411.38;7389418;19;20416;-50
2022/06/17 03:53:06;;;;;;;19.37;11.07;;;;;;;10.46;100.00;101413.06;7398244;19;20464;-54
2022/06/17 03:55:38;;;;;;;17.03;11.20;;;;;;;10.52;100.00;101409.09;7387458;19;20774;-54
2022/06/17 03:58:09;;;;;;;15.50;9.40;;;;;;;10.55;100.00;101408.38;7398463;19;20391;-54
2022/06/17 04:00:43;;;;;;;14.93;9.77;;;;;;;10.52;100.00;101411.66;7389061;19;20495;-52
2022/06/17 04:03:16;;;;;;;15.40;10.50;;;;;;;10.44;100.00;101417.22;7397580;19;20385;-48
2022/06/17 04:05:46;;;;;;;16.60;9.73;;;;;;;10.35;100.00;101418.50;7389019;19;20431;-51
2022/06/17 04:08:16;;;;;;;19.53;10.33;;;;;;;10.35;100.00;101405.59;7397925;19;20730;-54
2022/06/17 04:10:48;;;;;;;45.77;25.40;;;;;;;11.02;100.00;101426.25;7389230;19;20418;-47
2022/06/17 04:13:21;;;;;;;47.20;26.33;;;;;;;11.32;100.00;101423.38;7397171;19;20399;-53
2022/06/17 04:15:56;;;;;;;22.73;13.73;;;;;;;11.26;100.00;101415.34;7385390;19;20434;-50
2022/06/17 04:18:26;;;;;;;20.10;10.57;;;;;;;11.02;100.00;101396.13;7397558;19;20395;-50
2022/06/17 04:20:58;;;;;;;18.10;9.27;;;;;;;11.14;100.00;101402.72;7388671;19;20410;-53
2022/06/17 04:23:31;;;;;;;15.70;10.03;;;;;;;11.01;100.00;101393.44;7401175;19;20406;-54
2022/06/17 04:26:06;;;;;;;13.80;8.93;;;;;;;10.90;100.00;101400.66;7391493;19;20438;-53
2022/06/17 04:28:38;;;;;;;13.13;8.73;;;;;;;10.93;100.00;101395.69;7397284;19;20912;-54
2022/06/17 04:31:09;;;;;;;14.77;9.20;;;;;;;11.02;100.00;101408.16;7388785;19;20497;-54
2022/06/17 04:33:43;;;;;;;20.83;9.87;;;;;;;11.00;100.00;101417.50;7397016;19;20400;-52
2022/06/17 04:36:16;;;;;;;15.33;9.40;;;;;;;11.06;100.00;101418.72;7389349;19;20418;-53
2022/06/17 04:38:53;;;;;;;16.27;9.57;;;;;;;11.14;100.00;101423.38;7398142;19;20396;-52
2022/06/17 04:41:27;;;;;;;17.33;9.20;;;;;;;11.21;100.00;101412.53;7387356;19;20408;-56
2022/06/17 04:43:59;;;;;;;17.43;9.50;;;;;;;11.29;100.00;101416.38;7396526;19;20389;-53
2022/06/17 04:46:36;;;;;;;17.60;10.50;;;;;;;11.40;100.00;101416.94;7389075;19;20405;-53
2022/06/17 04:49:07;;;;;;;15.77;10.17;;;;;;;11.42;100.00;101407.53;7395896;19;20397;-53
2022/06/17 04:51:37;;;;;;;16.77;10.57;;;;;;;11.42;100.00;101415.28;7387606;19;20422;-53
2022/06/17 04:54:07;;;;;;;21.10;14.17;;;;;;;11.45;100.00;101412.84;7395981;19;20746;-52
2022/06/17 04:56:42;;;;;;;15.97;9.37;;;;;;;11.60;100.00;101409.25;7395351;19;20952;-51
2022/06/17 04:59:20;;;;;;;16.17;10.07;;;;;;;11.60;100.00;101411.84;7387562;19;20396;-55
2022/06/17 05:01:50;;;;;;;18.03;11.00;;;;;;;11.64;100.00;101418.91;7395371;19;20389;-51
2022/06/17 05:04:20;;;;;;;20.70;10.17;;;;;;;11.70;100.00;101428.66;7388486;19;20397;-51
2022/06/17 05:06:50;;;;;;;21.80;10.80;;;;;;;11.79;100.00;101428.22;7394717;19;20391;-47
2022/06/17 05:09:24;;;;;;;19.83;11.43;;;;;;;11.87;100.00;101420.00;7386508;19;20386;-54
2022/06/17 05:11:58;;;;;;;21.80;11.63;;;;;;;12.01;100.00;101425.81;7395192;19;20948;-57
2022/06/17 05:14:38;;;;;;;19.83;11.23;;;;;;;12.10;100.00;101424.53;7386926;19;20473;-56
2022/06/17 05:17:08;;;;;;;19.50;11.27;;;;;;;12.15;100.00;101425.59;7396001;19;20716;-55
2022/06/17 05:19:37;;;;;;;18.57;10.67;;;;;;;12.22;100.00;101425.09;7385443;19;20402;-55
2022/06/17 05:22:14;;;;;;;19.70;11.37;;;;;;;12.32;100.00;101433.25;7395622;19;20389;-53
2022/06/17 05:24:45;;;;;;;14.37;10.20;;;;;;;12.36;100.00;101437.75;7386637;19;20413;-52
2022/06/17 05:27:18;;;;;;;20.03;11.90;;;;;;;12.46;100.00;101429.56;7395248;19;20462;-55
2022/06/17 05:29:47;;;;;;;21.90;10.67;;;;;;;12.61;100.00;101433.69;7385880;19;20494;-51
2022/06/17 05:32:20;;;;;;;21.10;11.10;;;;;;;12.69;100.00;101429.72;7394966;19;20470;-51
2022/06/17 05:34:51;;;;;;;23.20;12.57;;;;;;;12.85;100.00;101432.97;7385993;19;20415;-55
2022/06/17 05:37:21;;;;;;;18.40;13.07;;;;;;;12.94;100.00;101433.38;7394796;19;20432;-51
2022/06/17 05:39:51;;;;;;;20.10;13.57;;;;;;;13.05;100.00;101424.34;7386187;19;20408;-54
2022/06/17 05:42:23;;;;;;;26.07;15.50;;;;;;;13.18;100.00;101424.88;7396052;19;20389;-56
2022/06/17 05:44:52;;;;;;;22.80;15.03;;;;;;;13.31;100.00;101403.81;7386178;19;20963;-53
2022/06/17 05:47:22;;;;;;;30.03;16.37;;;;;;;13.39;100.00;101388.59;7394229;19;20394;-52
2022/06/17 05:49:52;;;;;;;24.47;13.97;;;;;;;13.48;100.00;101390.69;7384618;19;20434;-54
2022/06/17 05:52:21;;;;;;;24.50;15.70;;;;;;;13.54;100.00;101374.50;7394421;19;20400;-52
2022/06/17 05:54:51;;;;;;;26.40;16.07;;;;;;;13.67;100.00;101356.00;7385986;19;20433;-55
2022/06/17 05:57:23;;;;;;;26.53;16.37;;;;;;;13.73;100.00;101339.78;7394082;19;20396;-53
2022/06/17 05:59:53;;;;;;;24.30;16.57;;;;;;;13.85;100.00;101329.00;7386029;19;20401;-53
2022/06/17 06:02:22;;;;;;;28.40;15.47;;;;;;;13.92;100.00;101312.84;7393987;19;20414;-53
2022/06/17 06:04:52;;;;;;;20.63;14.90;;;;;;;14.00;100.00;101293.25;7386458;19;21337;-55
2022/06/17 06:07:22;;;;;;;21.87;13.53;;;;;;;14.17;100.00;101291.25;7394019;19;20390;-53
2022/06/17 06:09:51;;;;;;;28.50;16.70;;;;;;;14.27;100.00;101276.00;7384813;19;20905;-51
2022/06/17 06:12:53;;;;;;;19.07;12.80;;;;;;;14.38;100.00;101269.50;7393711;19;20385;-56
2022/06/17 06:15:14;;;;;;;22.10;12.90;;;;;;;14.35;100.00;101222.66;7385408;19;20441;-57
2022/06/17 06:17:46;;;;;;;22.50;12.63;;;;;;;14.41;100.00;101215.06;7398479;19;20402;-54
2022/06/17 06:20:17;;;;;;;15.40;8.90;;;;;;;14.52;100.00;101173.00;7390442;19;20437;-54
2022/06/17 06:22:47;;;;;;;18.13;7.47;;;;;;;14.52;100.00;101144.44;7402657;19;20383;-55
2022/06/17 06:25:18;;;;;;;13.53;7.63;;;;;;;14.61;100.00;101123.94;7391964;19;20487;-54
2022/06/17 06:27:50;;;;;;;11.50;7.13;;;;;;;14.68;100.00;101107.72;7401277;19;20923;-56
2022/06/17 06:30:24;;;;;;;10.57;7.20;;;;;;;14.76;100.00;101113.19;7391914;19;20407;-56
2022/06/17 06:32:56;;;;;;;15.30;6.93;;;;;;;14.92;100.00;101122.31;7401216;19;20394;-52
2022/06/17 06:35:28;;;;;;;11.30;6.53;;;;;;;14.92;100.00;101142.25;7391690;19;20453;-53
2022/06/17 06:37:58;;;;;;;17.63;9.60;;;;;;;15.10;100.00;101157.47;7400816;19;20727;-54
2022/06/17 06:40:28;;;;;;;11.90;6.80;;;;;;;15.23;100.00;101164.78;7390377;19;20517;-50
2022/06/17 06:43:01;;;;;;;12.13;5.80;;;;;;;15.33;100.00;101165.09;7400592;19;20392;-56
2022/06/17 06:45:33;;;;;;;17.43;8.93;;;;;;;15.49;100.00;101175.06;7392108;19;20424;-57
2022/06/17 06:48:07;;;;;;;10.87;6.40;;;;;;;15.59;100.00;101199.59;7400279;19;20944;-57
2022/06/17 06:50:38;;;;;;;10.37;5.50;;;;;;;15.69;100.00;101220.69;7390785;19;20410;-55
2022/06/17 06:53:09;;;;;;;10.90;5.17;;;;;;;15.71;100.00;101277.13;7400843;19;20756;-53
2022/06/17 06:55:39;;;;;;;7.53;5.73;;;;;;;15.70;100.00;101322.16;7391230;19;20429;-51
2022/06/17 06:58:14;;;;;;;11.80;5.27;;;;;;;15.76;100.00;101358.78;7399691;19;20471;-52
2022/06/17 07:00:47;;;;;;;7.27;4.93;;;;;;;15.72;100.00;101382.91;7390713;19;20501;-53
2022/06/17 07:03:19;;;;;;;9.00;4.43;;;;;;;15.86;100.00;101395.47;7399749;19;20444;-53
2022/06/17 07:05:51;;;;;;;7.10;4.27;;;;;;;15.90;100.00;101413.81;7392309;19;20421;-51
2022/06/17 07:08:24;;;;;;;8.47;5.23;;;;;;;16.00;100.00;101437.53;7399825;19;20520;-54
2022/06/17 07:10:56;;;;;;;8.07;4.40;;;;;;;16.08;100.00;101449.06;7390454;19;20409;-54
2022/06/17 07:13:28;;;;;;;12.40;4.77;;;;;;;16.27;100.00;101453.09;7399669;19;20468;-55
2022/06/17 07:15:58;;;;;;;7.97;4.40;;;;;;;16.27;100.00;101471.34;7389917;19;20443;-56
2022/06/17 07:18:29;;;;;;;8.47;4.43;;;;;;;16.44;100.00;101476.13;7399174;19;20399;-56
2022/06/17 07:21:06;;;;;;;9.10;4.73;;;;;;;16.59;100.00;101473.97;7389679;19;20969;-56
2022/06/17 07:23:37;;;;;;;7.27;4.13;;;;;;;16.69;100.00;101484.66;7399108;19;20386;-53
2022/06/17 07:26:10;;;;;;;11.97;4.50;;;;;;;16.65;100.00;101514.03;7389852;19;20420;-52
2022/06/17 07:28:42;;;;;;;7.53;4.77;;;;;;;16.55;100.00;101524.22;7399193;19;20395;-56
2022/06/17 07:31:12;;;;;;;13.27;4.53;;;;;;;16.68;100.00;101514.16;7389069;19;20410;-50
2022/06/17 07:33:42;;;;;;;8.67;4.27;;;;;;;16.74;100.00;101529.97;7398790;19;20399;-54
2022/06/17 07:39:53;;;;;;;6.37;3.47;;;;;;;16.80;100.00;101540.56;7389437;19;20961;-55
2022/06/17 07:41:50;;;;;;;8.30;4.60;;;;;;;16.90;100.00;101559.03;7397104;19;20404;-50
2022/06/17 07:44:22;;;;;;;6.10;3.67;;;;;;;17.04;100.00;101549.94;7391329;19;20931;-52
2022/06/17 07:46:52;;;;;;;11.33;3.90;;;;;;;17.26;100.00;101560.94;7398098;19;20917;-53
2022/06/17 07:49:22;;;;;;;6.90;3.40;;;;;;;17.17;100.00;101572.00;7386228;19;20379;-56
2022/06/17 07:51:52;;;;;;;12.50;4.13;;;;;;;17.40;100.00;101564.78;7398299;19;20388;-55
2022/06/17 07:54:21;;;;;;;8.27;3.40;;;;;;;17.55;100.00;101564.31;7391407;19;20399;-52
2022/06/17 07:56:56;;;;;;;5.87;3.50;;;;;;;17.69;100.00;101582.03;7396323;19;20417;-55
2022/06/17 07:59:28;;;;;;;9.27;3.97;;;;;;;17.81;100.00;101599.75;7389032;19;20407;-54
2022/06/17 08:01:58;;;;;;;6.30;3.77;;;;;;;17.82;100.00;101614.56;7398374;19;20381;-53
2022/06/17 08:04:28;;;;;;;11.93;3.70;;;;;;;17.85;100.00;101604.22;7390659;19;20492;-58
2022/06/17 08:06:58;;;;;;;9.50;3.33;;;;;;;17.95;100.00;101603.56;7397513;19;20490;-55
2022/06/17 08:09:30;;;;;;;7.83;3.33;;;;;;;18.00;100.00;101621.09;7388090;19;20399;-54
2022/06/17 08:12:00;;;;;;;6.83;2.90;;;;;;;18.11;100.00;101626.59;7397919;19;20822;-56
2022/06/17 08:14:32;;;;;;;8.83;4.20;;;;;;;18.08;100.00;101638.75;7389463;19;20748;-57
2022/06/17 08:17:02;;;;;;;4.70;2.77;;;;;;;18.26;100.00;101652.22;7396664;19;20398;-56
2022/06/17 08:19:32;;;;;;;6.23;3.20;;;;;;;18.20;100.00;101661.66;7391536;19;20442;-56
2022/06/17 08:22:01;;;;;;;6.90;3.40;;;;;;;18.35;100.00;101657.63;7397275;19;20399;-53
2022/06/17 08:24:31;;;;;;;6.37;3.03;;;;;;;18.57;100.00;101659.03;7390114;19;20391;-54
2022/06/17 08:27:01;;;;;;;9.33;3.43;;;;;;;18.69;100.00;101668.00;7397567;19;20916;-57
2022/06/17 08:29:33;;;;;;;8.93;3.10;;;;;;;18.72;100.00;101668.09;7388979;19;20423;-55
2022/06/17 08:35:01;;;;;;;10.80;3.50;;;;;;;18.91;100.00;101690.28;7389878;19;20526;-55
2022/06/17 08:37:31;;;;;;;4.07;2.30;;;;;;;18.91;100.00;101700.72;7396463;19;20399;-54
2022/06/17 08:40:01;;;;;;;23.90;8.77;;;;;;;19.02;100.00;101714.97;7387847;19;20995;-51
2022/06/17 08:42:44;;;;;;;42.23;15.20;;;;;;;18.95;100.00;101713.03;7397578;19;20396;-51
2022/06/17 08:45:22;;;;;;;5.23;2.50;;;;;;;19.11;100.00;101716.91;7387307;19;20944;-55
2022/06/17 08:48:03;;;;;;;14.23;5.40;;;;;;;19.03;100.00;101726.31;7397347;19;20434;-53
2022/06/17 08:50:43;;;;;;;13.57;5.10;;;;;;;19.08;100.00;101716.81;7383118;19;20478;-53
2022/06/17 08:53:47;;;;;;;5.77;2.30;;;;;;;19.24;100.00;101725.91;7397991;19;20419;-54
2022/06/17 08:56:21;;;;;;;11.33;4.50;;;;;;;19.21;100.00;101731.06;7389475;19;20782;-54
2022/06/17 08:58:57;;;;;;;4.67;2.23;;;;;;;19.29;100.00;101723.38;7393981;19;20379;-53
2022/06/17 09:01:35;;;;;;;6.50;3.03;;;;;;;19.53;100.00;101728.22;7385376;19;20409;-52
2022/06/17 09:04:16;;;;;;;14.13;5.20;;;;;;;19.43;100.00;101737.63;7395633;19;20387;-55
2022/06/17 09:06:57;;;;;;;7.20;3.00;;;;;;;19.41;100.00;101741.94;7394407;19;20478;-52
2022/06/17 09:09:50;;;;;;;6.07;3.00;;;;;;;19.54;100.00;101740.44;7385324;19;20392;-53
2022/06/17 09:12:38;;;;;;;23.53;14.70;;;;;;;19.67;100.00;101732.84;7395084;19;20746;-49
2022/06/17 09:15:15;;;;;;;22.13;11.33;;;;;;;19.77;100.00;101734.78;7385336;19;20407;-53
2022/06/17 09:17:55;;;;;;;16.27;5.57;;;;;;;19.61;100.00;101738.84;7393724;19;20383;-50
2022/06/17 09:20:31;;;;;;;9.33;3.73;;;;;;;19.58;100.00;101735.28;7385169;19;20411;-50
2022/06/17 09:23:05;;;;;;;7.20;3.07;;;;;;;19.93;100.00;101732.44;7394624;19;20922;-55
2022/06/17 09:25:39;;;;;;;12.73;4.40;;;;;;;20.02;100.00;101731.75;7385080;19;20407;-50
2022/06/17 09:28:13;;;;;;;8.10;3.50;;;;;;;20.16;100.00;101734.63;7394982;19;20396;-52
2022/06/17 09:30:47;;;;;;;8.50;2.53;;;;;;;20.46;100.00;101734.25;7385874;19;20414;-52
2022/06/17 09:33:24;;;;;;;6.13;3.50;;;;;;;20.38;100.00;101756.84;7395327;19;20615;-50
2022/06/17 09:35:56;;;;;;;18.00;8.00;;;;;;;20.52;100.00;101754.47;7385870;19;20423;-52
2022/06/17 09:38:30;;;;;;;7.77;3.30;;;;;;;20.57;100.00;101751.91;7393263;19;20404;-55
2022/06/17 09:41:02;;;;;;;7.63;3.83;;;;;;;20.54;100.00;101747.50;7386185;19;20496;-53
2022/06/17 09:43:38;;;;;;;7.13;3.20;;;;;;;20.62;100.00;101755.50;7394275;19;20949;-50
2022/06/17 09:46:13;;;;;;;9.40;3.40;;;;;;;20.68;100.00;101754.69;7384710;19;20415;-53
2022/06/17 09:48:48;;;;;;;6.80;2.80;;;;;;;20.68;100.00;101763.44;7394624;19;20404;-55
2022/06/17 09:51:21;;;;;;;6.90;3.13;;;;;;;20.66;100.00;101769.53;7383133;19;20414;-52
2022/06/17 09:53:54;;;;;;;11.73;3.60;;;;;;;20.50;100.00;101772.78;7391834;19;20809;-50
2022/06/17 09:56:28;;;;;;;6.23;3.00;;;;;;;20.74;100.00;101773.13;7384422;19;20419;-53
2022/06/17 09:59:02;;;;;;;6.00;2.80;;;;;;;20.60;100.00;101765.94;7393319;19;20410;-53
2022/06/17 10:01:32;;;;;;;8.80;3.40;;;;;;;20.50;100.00;101766.63;7386137;19;20417;-49
2022/06/17 10:04:09;;;;;;;7.47;3.83;;;;;;;20.47;100.00;101761.34;7393165;19;20379;-48
2022/06/17 10:06:48;;;;;;;17.03;6.00;;;;;;;20.64;100.00;101759.91;7393519;19;20419;-54
2022/06/17 10:09:32;;;;;;;15.87;6.57;;;;;;;20.97;100.00;101762.16;7382789;19;20416;-49
2022/06/17 10:12:05;;;;;;;10.93;4.73;;;;;;;21.03;100.00;101777.97;7393880;19;20380;-53
2022/06/17 10:14:48;;;;;;;13.40;6.03;;;;;;;20.48;100.00;101770.97;7393649;19;20395;-53
2022/06/17 10:20:17;;;;;;;16.90;4.83;;;;;;;20.66;100.00;101780.00;7391861;19;20962;-52
2022/06/17 10:22:54;;;;;;;9.50;3.60;;;;;;;20.91;100.00;101769.06;7383714;19;20448;-54
2022/06/17 10:25:39;;;;;;;6.10;3.27;;;;;;;21.05;100.00;101781.50;7392356;19;20383;-54
2022/06/17 10:28:19;;;;;;;7.57;3.80;;;;;;;20.84;100.00;101785.56;7392509;19;20429;-52
2022/06/17 10:30:54;;;;;;;7.90;3.87;;;;;;;20.70;100.00;101784.44;7380431;19;20413;-50
2022/06/17 10:33:24;;;;;;;5.93;3.40;;;;;;;20.78;100.00;101777.59;7394553;19;20763;-54
2022/06/17 10:35:57;;;;;;;12.70;5.87;;;;;;;20.58;100.00;101796.50;7387228;19;20390;-51
2022/06/17 10:38:29;;;;;;;8.50;3.77;;;;;;;20.46;100.00;101801.53;7392776;19;20384;-53
2022/06/17 10:40:58;;;;;;;7.13;3.13;;;;;;;20.84;100.00;101787.28;7385577;19;20425;-51
2022/06/17 10:43:33;;;;;;;9.30;3.20;;;;;;;21.09;100.00;101792.91;7392377;19;20833;-51
2022/06/17 10:46:03;;;;;;;9.60;3.60;;;;;;;21.19;100.00;101802.69;7385203;19;20406;-56
2022/06/17 10:48:37;;;;;;;13.13;3.90;;;;;;;20.91;100.00;101805.78;7392616;19;20384;-54
2022/06/17 10:51:10;;;;;;;7.53;3.13;;;;;;;21.01;100.00;101790.16;7384337;19;20420;-52
2022/06/17 10:53:44;;;;;;;15.67;9.10;;;;;;;21.02;100.00;101789.34;7392530;19;20397;-52
2022/06/17 10:56:16;;;;;;;8.30;5.07;;;;;;;21.00;100.00;101804.16;7384937;19;20422;-47
2022/06/17 10:58:58;;;;;;;8.93;3.63;;;;;;;21.05;100.00;101792.00;7391859;19;20395;-55
2022/06/17 11:01:27;;;;;;;13.83;5.17;;;;;;;20.91;100.00;101804.91;7382826;19;20765;-53
2022/06/17 11:04:14;;;;;;;7.67;3.83;;;;;;;20.77;100.00;101797.66;7392720;19;20463;-50
2022/06/17 11:06:54;;;;;;;9.30;3.93;;;;;;;20.88;100.00;101799.63;7391931;19;20474;-50
2022/06/17 11:09:28;;;;;;;6.50;3.20;;;;;;;20.78;100.00;101793.31;7397737;19;20447;-49
2022/06/17 11:12:10;;;;;;;6.47;3.87;;;;;;;20.84;100.00;101793.44;7392691;19;20949;-53
2022/06/17 11:14:42;;;;;;;6.37;3.87;;;;;;;20.75;100.00;101788.00;7399466;19;20384;-50
2022/06/17 11:17:17;;;;;;;7.33;3.67;;;;;;;21.08;100.00;101788.53;7387197;19;20411;-52
2022/06/17 11:19:49;;;;;;;8.23;3.60;;;;;;;21.08;100.00;101789.44;7397646;19;20961;-53
2022/06/17 11:22:32;;;;;;;7.40;3.50;;;;;;;21.03;100.00;101788.47;7389569;19;20418;-52
2022/06/17 11:25:07;;;;;;;8.67;3.80;;;;;;;21.03;100.00;101783.22;7398992;19;20384;-55
2022/06/17 11:27:41;;;;;;;6.60;3.50;;;;;;;21.13;100.00;101774.59;7390770;19;20418;-52
2022/06/17 11:30:31;;;;;;;5.63;2.73;;;;;;;21.28;100.00;101780.94;7397257;19;20410;-55
2022/06/17 11:33:02;;;;;;;10.50;3.27;;;;;;;21.15;100.00;101788.66;7391188;19;20427;-52
2022/06/17 11:35:39;;;;;;;10.37;4.13;;;;;;;21.32;100.00;101790.59;7398835;19;20391;-50
2022/06/17 11:38:17;;;;;;;13.53;4.90;;;;;;;21.29;100.00;101795.81;7396889;19;20450;-52
2022/06/17 11:41:06;;;;;;;8.20;3.77;;;;;;;21.51;100.00;101788.22;7390067;19;20411;-53
2022/06/17 11:43:38;;;;;;;8.77;2.90;;;;;;;21.54;100.00;101781.25;7398168;19;20412;-53
2022/06/17 11:46:10;;;;;;;6.17;3.87;;;;;;;21.44;100.00;101795.16;7390572;19;20415;-53
2022/06/17 11:48:45;;;;;;;6.33;2.90;;;;;;;21.61;100.00;101802.34;7398654;19;20376;-52